X  Κλείσε Στοιχεία αεροπορικών μετεωρολογικών δεδομένων METAR        LGTS Thessaloniki Macedonia International
θερμοκρασία
28°C θερμοκρασία
18°C Σημείο δρόσου
55% Υγρασία



Ανεμος
30 KM/H
18 MPH
8 M/S
16 KTS



320°
VD
Τρέχουσες συνθήκες

Mostly Sunny Κυρίως αίθριος
πίεση 1008 (hPa) - 29.76 (inHg)
Ορατότητα 6 (μίλι) - 10 (km)
Aεροδρόμιο
Κωδικός αεροδρομίου LGTS

Τοποθεσία: Thessaloniki Macedonia International
Απόσταση: 85 (km)

Metar:
METAR LGTS 140650Z 32016KT 9999 FEW025 28/18 Q1008 NOSIG

ώρα: 14-06-2024 09:50 EEST